sensor_id;sensor_type;location;lat;lon;timestamp;pressure;altitude;pressure_sealevel;temperature;humidity
32109;BME280;18624;50.042;8.436;2024-01-11T00:01:47;101743.59;;;-3.06;86.70
32109;BME280;18624;50.042;8.436;2024-01-11T00:04:15;101686.69;;;-3.52;87.13
32109;BME280;18624;50.042;8.436;2024-01-11T00:06:43;101751.94;;;-3.07;87.17
32109;BME280;18624;50.042;8.436;2024-01-11T00:09:10;101694.13;;;-3.49;87.19
32109;BME280;18624;50.042;8.436;2024-01-11T00:11:36;101754.38;;;-3.19;88.07
32109;BME280;18624;50.042;8.436;2024-01-11T00:14:03;101715.34;;;-3.39;88.09
32109;BME280;18624;50.042;8.436;2024-01-11T00:16:29;101749.34;;;-3.12;88.65
32109;BME280;18624;50.042;8.436;2024-01-11T00:18:56;101753.03;;;-3.08;88.36
32109;BME280;18624;50.042;8.436;2024-01-11T00:21:23;101734.69;;;-3.15;88.15
32109;BME280;18624;50.042;8.436;2024-01-11T00:23:49;101760.75;;;-3.07;88.71
32109;BME280;18624;50.042;8.436;2024-01-11T00:26:16;101758.91;;;-3.06;88.26
32109;BME280;18624;50.042;8.436;2024-01-11T00:28:42;101748.25;;;-3.11;88.00
32109;BME280;18624;50.042;8.436;2024-01-11T00:31:09;101739.22;;;-3.15;87.35
32109;BME280;18624;50.042;8.436;2024-01-11T00:33:36;101754.31;;;-3.06;87.85
32109;BME280;18624;50.042;8.436;2024-01-11T00:36:03;101739.84;;;-3.18;87.63
32109;BME280;18624;50.042;8.436;2024-01-11T00:38:30;101736.97;;;-3.22;87.74
32109;BME280;18624;50.042;8.436;2024-01-11T00:40:57;101673.84;;;-3.78;87.92
32109;BME280;18624;50.042;8.436;2024-01-11T00:43:23;101758.81;;;-3.15;88.20
32109;BME280;18624;50.042;8.436;2024-01-11T00:45:50;101774.69;;;-3.04;88.02
32109;BME280;18624;50.042;8.436;2024-01-11T00:48:16;101722.28;;;-3.38;88.54
32109;BME280;18624;50.042;8.436;2024-01-11T00:50:43;101717.34;;;-3.45;88.31
32109;BME280;18624;50.042;8.436;2024-01-11T00:53:10;101768.66;;;-3.10;88.55
32109;BME280;18624;50.042;8.436;2024-01-11T00:55:37;101737.69;;;-3.30;88.25
32109;BME280;18624;50.042;8.436;2024-01-11T00:58:04;101723.03;;;-3.46;88.13
32109;BME280;18624;50.042;8.436;2024-01-11T01:00:30;101780.75;;;-3.13;88.76
32109;BME280;18624;50.042;8.436;2024-01-11T01:02:57;101682.06;;;-3.74;88.35
32109;BME280;18624;50.042;8.436;2024-01-11T01:05:23;101754.56;;;-3.29;88.83
32109;BME280;18624;50.042;8.436;2024-01-11T01:07:50;101780.56;;;-3.16;88.99
32109;BME280;18624;50.042;8.436;2024-01-11T01:10:17;101778.97;;;-3.17;88.60
32109;BME280;18624;50.042;8.436;2024-01-11T01:12:43;101768.16;;;-3.26;88.89
32109;BME280;18624;50.042;8.436;2024-01-11T01:15:10;101778.97;;;-3.17;89.24
32109;BME280;18624;50.042;8.436;2024-01-11T01:17:37;101751.41;;;-3.32;88.58
32109;BME280;18624;50.042;8.436;2024-01-11T01:20:04;101766.28;;;-3.25;89.13
32109;BME280;18624;50.042;8.436;2024-01-11T01:22:30;101751.59;;;-3.28;89.63
32109;BME280;18624;50.042;8.436;2024-01-11T01:24:57;101777.69;;;-3.20;88.92
32109;BME280;18624;50.042;8.436;2024-01-11T01:27:23;101784.16;;;-3.21;88.95
32109;BME280;18624;50.042;8.436;2024-01-11T01:29:50;101779.56;;;-3.20;88.92
32109;BME280;18624;50.042;8.436;2024-01-11T01:32:17;101759.13;;;-3.30;89.48
32109;BME280;18624;50.042;8.436;2024-01-11T01:34:44;101760.22;;;-3.31;89.34
32109;BME280;18624;50.042;8.436;2024-01-11T01:37:14;101738.91;;;-3.50;89.31
32109;BME280;18624;50.042;8.436;2024-01-11T01:39:41;101791.91;;;-3.19;89.73
32109;BME280;18624;50.042;8.436;2024-01-11T01:42:08;101712.91;;;-3.63;89.62
32109;BME280;18624;50.042;8.436;2024-01-11T01:44:35;101782.88;;;-3.23;89.67
32109;BME280;18624;50.042;8.436;2024-01-11T01:47:03;101740.91;;;-3.55;90.00
32109;BME280;18624;50.042;8.436;2024-01-11T01:49:31;101777.41;;;-3.32;89.96
32109;BME280;18624;50.042;8.436;2024-01-11T01:51:58;101781.25;;;-3.24;90.20
32109;BME280;18624;50.042;8.436;2024-01-11T01:54:25;101738.72;;;-3.53;90.05
32109;BME280;18624;50.042;8.436;2024-01-11T01:56:55;101738.50;;;-3.57;90.08
32109;BME280;18624;50.042;8.436;2024-01-11T01:59:24;101532.72;;;-5.01;89.96
32109;BME280;18624;50.042;8.436;2024-01-11T02:01:52;101681.69;;;-3.95;89.99
32109;BME280;18624;50.042;8.436;2024-01-11T02:04:19;101713.72;;;-3.76;90.38
32109;BME280;18624;50.042;8.436;2024-01-11T02:06:46;101796.47;;;-3.34;90.58
32109;BME280;18624;50.042;8.436;2024-01-11T02:09:14;101796.19;;;-3.32;90.89
32109;BME280;18624;50.042;8.436;2024-01-11T02:11:41;101793.50;;;-3.32;90.88
32109;BME280;18624;50.042;8.436;2024-01-11T02:14:10;101798.56;;;-3.31;90.25
32109;BME280;18624;50.042;8.436;2024-01-11T02:16:37;101779.50;;;-3.43;90.25
32109;BME280;18624;50.042;8.436;2024-01-11T02:19:07;101722.25;;;-3.88;90.53
32109;BME280;18624;50.042;8.436;2024-01-11T02:21:41;101764.63;;;-3.49;91.05
32109;BME280;18624;50.042;8.436;2024-01-11T02:24:09;101792.00;;;-3.38;91.09
32109;BME280;18624;50.042;8.436;2024-01-11T02:26:36;101757.38;;;-3.62;91.75
32109;BME280;18624;50.042;8.436;2024-01-11T02:29:02;101710.84;;;-3.94;91.13
32109;BME280;18624;50.042;8.436;2024-01-11T02:31:29;101684.16;;;-4.13;91.00
32109;BME280;18624;50.042;8.436;2024-01-11T02:33:57;101730.00;;;-3.87;90.85
32109;BME280;18624;50.042;8.436;2024-01-11T02:36:24;101792.72;;;-3.46;91.26
32109;BME280;18624;50.042;8.436;2024-01-11T02:38:51;101805.13;;;-3.37;90.55
32109;BME280;18624;50.042;8.436;2024-01-11T02:41:19;101783.81;;;-3.55;90.79
32109;BME280;18624;50.042;8.436;2024-01-11T02:43:48;101795.59;;;-3.43;91.55
32109;BME280;18624;50.042;8.436;2024-01-11T02:46:16;101813.75;;;-3.40;91.24
32109;BME280;18624;50.042;8.436;2024-01-11T02:48:43;101788.44;;;-3.47;91.42
32109;BME280;18624;50.042;8.436;2024-01-11T02:51:10;101803.56;;;-3.38;91.26
32109;BME280;18624;50.042;8.436;2024-01-11T02:53:36;101770.88;;;-3.53;90.86
32109;BME280;18624;50.042;8.436;2024-01-11T02:56:03;101707.59;;;-3.91;90.98
32109;BME280;18624;50.042;8.436;2024-01-11T02:58:30;101763.31;;;-3.65;91.43
32109;BME280;18624;50.042;8.436;2024-01-11T03:00:57;101800.03;;;-3.38;90.70
32109;BME280;18624;50.042;8.436;2024-01-11T03:03:23;101769.00;;;-3.53;91.05
32109;BME280;18624;50.042;8.436;2024-01-11T03:05:50;101718.00;;;-3.89;90.79
32109;BME280;18624;50.042;8.436;2024-01-11T03:08:17;101767.09;;;-3.52;90.95
32109;BME280;18624;50.042;8.436;2024-01-11T03:10:44;101768.69;;;-3.51;92.07
32109;BME280;18624;50.042;8.436;2024-01-11T03:13:10;101775.44;;;-3.40;92.03
32109;BME280;18624;50.042;8.436;2024-01-11T03:15:37;101727.31;;;-3.73;92.10
32109;BME280;18624;50.042;8.436;2024-01-11T03:18:03;101686.06;;;-3.99;91.95
32109;BME280;18624;50.042;8.436;2024-01-11T03:20:31;101772.16;;;-3.37;91.78
32109;BME280;18624;50.042;8.436;2024-01-11T03:22:57;101751.72;;;-3.61;91.91
32109;BME280;18624;50.042;8.436;2024-01-11T03:25:24;101744.28;;;-3.64;91.92
32109;BME280;18624;50.042;8.436;2024-01-11T03:27:51;101688.13;;;-3.96;92.47
32109;BME280;18624;50.042;8.436;2024-01-11T03:30:18;101745.19;;;-3.54;92.33
32109;BME280;18624;50.042;8.436;2024-01-11T03:32:45;101758.47;;;-3.49;92.16
32109;BME280;18624;50.042;8.436;2024-01-11T03:35:12;101767.41;;;-3.40;92.25
32109;BME280;18624;50.042;8.436;2024-01-11T03:37:38;101744.06;;;-3.53;92.17
32109;BME280;18624;50.042;8.436;2024-01-11T03:40:05;101725.44;;;-3.72;91.14
32109;BME280;18624;50.042;8.436;2024-01-11T03:42:32;101718.19;;;-3.86;91.41
32109;BME280;18624;50.042;8.436;2024-01-11T03:44:59;101711.63;;;-3.93;91.72
32109;BME280;18624;50.042;8.436;2024-01-11T03:47:25;101728.31;;;-3.83;91.38
32109;BME280;18624;50.042;8.436;2024-01-11T03:49:52;101684.25;;;-4.18;91.74
32109;BME280;18624;50.042;8.436;2024-01-11T03:52:18;101749.34;;;-3.76;92.10
32109;BME280;18624;50.042;8.436;2024-01-11T03:54:45;101709.94;;;-4.03;91.79
32109;BME280;18624;50.042;8.436;2024-01-11T03:57:12;101779.03;;;-3.59;92.55
32109;BME280;18624;50.042;8.436;2024-01-11T03:59:40;101784.69;;;-3.60;92.51
32109;BME280;18624;50.042;8.436;2024-01-11T04:02:06;101793.81;;;-3.61;91.79
32109;BME280;18624;50.042;8.436;2024-01-11T04:04:33;101736.31;;;-3.96;91.69
32109;BME280;18624;50.042;8.436;2024-01-11T04:07:00;101785.06;;;-3.67;91.97
32109;BME280;18624;50.042;8.436;2024-01-11T04:09:27;101721.25;;;-4.06;92.10
32109;BME280;18624;50.042;8.436;2024-01-11T04:11:53;101743.09;;;-3.85;92.42
32109;BME280;18624;50.042;8.436;2024-01-11T04:14:20;101782.81;;;-3.60;92.38
32109;BME280;18624;50.042;8.436;2024-01-11T04:16:47;101730.91;;;-3.91;91.54
32109;BME280;18624;50.042;8.436;2024-01-11T04:19:14;101617.78;;;-4.71;91.28
32109;BME280;18624;50.042;8.436;2024-01-11T04:21:42;101784.88;;;-3.57;91.77
32109;BME280;18624;50.042;8.436;2024-01-11T04:24:08;101804.16;;;-3.54;91.56
32109;BME280;18624;50.042;8.436;2024-01-11T04:26:35;101788.06;;;-3.54;91.62
32109;BME280;18624;50.042;8.436;2024-01-11T04:29:02;101791.84;;;-3.55;90.86
32109;BME280;18624;50.042;8.436;2024-01-11T04:31:28;101750.66;;;-3.87;91.43
32109;BME280;18624;50.042;8.436;2024-01-11T04:33:55;101796.19;;;-3.60;91.24
32109;BME280;18624;50.042;8.436;2024-01-11T04:36:22;101801.84;;;-3.61;91.58
32109;BME280;18624;50.042;8.436;2024-01-11T04:38:49;101767.09;;;-3.80;91.21
32109;BME280;18624;50.042;8.436;2024-01-11T04:41:15;101718.09;;;-4.08;90.90
32109;BME280;18624;50.042;8.436;2024-01-11T04:43:43;101795.22;;;-3.64;91.48
32109;BME280;18624;50.042;8.436;2024-01-11T04:46:21;101749.44;;;-3.95;91.57
32109;BME280;18624;50.042;8.436;2024-01-11T04:48:48;101792.31;;;-3.67;91.45
32109;BME280;18624;50.042;8.436;2024-01-11T04:51:16;101711.41;;;-4.24;91.62
32109;BME280;18624;50.042;8.436;2024-01-11T04:53:44;101799.94;;;-3.74;91.75
32109;BME280;18624;50.042;8.436;2024-01-11T04:56:14;101671.41;;;-4.62;92.33
32109;BME280;18624;50.042;8.436;2024-01-11T04:58:42;101796.88;;;-3.82;92.10
32109;BME280;18624;50.042;8.436;2024-01-11T05:01:13;101800.66;;;-3.83;92.67
32109;BME280;18624;50.042;8.436;2024-01-11T05:03:44;101797.91;;;-4.10;92.67
32109;BME280;18624;50.042;8.436;2024-01-11T05:06:22;101764.13;;;-4.39;93.17
32109;BME280;18624;50.042;8.436;2024-01-11T05:08:50;101762.25;;;-4.38;94.02
32109;BME280;18624;50.042;8.436;2024-01-11T05:11:19;101670.53;;;-4.90;93.95
32109;BME280;18624;50.042;8.436;2024-01-11T05:13:46;101768.84;;;-4.17;94.19
32109;BME280;18624;50.042;8.436;2024-01-11T05:16:21;101708.31;;;-4.45;93.85
32109;BME280;18624;50.042;8.436;2024-01-11T05:18:50;101795.88;;;-3.86;93.69
32109;BME280;18624;50.042;8.436;2024-01-11T05:21:17;101761.03;;;-4.13;92.38
32109;BME280;18624;50.042;8.436;2024-01-11T05:23:44;101809.75;;;-3.84;92.64
32109;BME280;18624;50.042;8.436;2024-01-11T05:26:12;101808.66;;;-3.96;92.93
32109;BME280;18624;50.042;8.436;2024-01-11T05:28:39;101772.63;;;-4.18;92.58
32109;BME280;18624;50.042;8.436;2024-01-11T05:31:10;101805.81;;;-3.86;93.15
32109;BME280;18624;50.042;8.436;2024-01-11T05:33:38;101813.53;;;-3.85;93.08
32109;BME280;18624;50.042;8.436;2024-01-11T05:36:06;101805.72;;;-3.81;92.94
32109;BME280;18624;50.042;8.436;2024-01-11T05:38:32;101802.44;;;-3.78;92.97
32109;BME280;18624;50.042;8.436;2024-01-11T05:40:59;101788.16;;;-3.87;92.58
32109;BME280;18624;50.042;8.436;2024-01-11T05:43:26;101819.31;;;-3.77;92.43
32109;BME280;18624;50.042;8.436;2024-01-11T05:45:52;101807.94;;;-4.02;91.89
32109;BME280;18624;50.042;8.436;2024-01-11T05:48:19;101821.47;;;-3.79;91.75
32109;BME280;18624;50.042;8.436;2024-01-11T05:50:46;101828.25;;;-3.82;91.82
32109;BME280;18624;50.042;8.436;2024-01-11T05:53:13;101752.97;;;-4.27;92.45
32109;BME280;18624;50.042;8.436;2024-01-11T05:55:40;101828.25;;;-3.82;92.39
32109;BME280;18624;50.042;8.436;2024-01-11T05:58:06;101818.09;;;-3.85;92.29
32109;BME280;18624;50.042;8.436;2024-01-11T06:00:33;101794.34;;;-4.05;92.53
32109;BME280;18624;50.042;8.436;2024-01-11T06:03:00;101809.97;;;-3.94;92.77
32109;BME280;18624;50.042;8.436;2024-01-11T06:05:26;101794.75;;;-4.12;92.56
32109;BME280;18624;50.042;8.436;2024-01-11T06:07:53;101839.25;;;-3.84;92.63
32109;BME280;18624;50.042;8.436;2024-01-11T06:10:19;101846.47;;;-3.84;92.33
32109;BME280;18624;50.042;8.436;2024-01-11T06:12:46;101813.09;;;-4.05;92.29
32109;BME280;18624;50.042;8.436;2024-01-11T06:15:13;101820.06;;;-4.04;92.48
32109;BME280;18624;50.042;8.436;2024-01-11T06:17:40;101832.75;;;-3.96;91.66
32109;BME280;18624;50.042;8.436;2024-01-11T06:20:07;101803.22;;;-4.24;91.92
32109;BME280;18624;50.042;8.436;2024-01-11T06:22:33;101832.38;;;-4.03;92.45
32109;BME280;18624;50.042;8.436;2024-01-11T06:25:00;101869.22;;;-3.82;91.85
32109;BME280;18624;50.042;8.436;2024-01-11T06:27:27;101871.38;;;-3.84;91.96
32109;BME280;18624;50.042;8.436;2024-01-11T06:29:53;101848.81;;;-3.96;91.72
32109;BME280;18624;50.042;8.436;2024-01-11T06:32:21;101870.78;;;-3.94;91.92
32109;BME280;18624;50.042;8.436;2024-01-11T06:34:48;101838.38;;;-4.12;91.85
32109;BME280;18624;50.042;8.436;2024-01-11T06:37:14;101728.91;;;-4.78;91.83
32109;BME280;18624;50.042;8.436;2024-01-11T06:39:41;101888.84;;;-3.86;91.61
32109;BME280;18624;50.042;8.436;2024-01-11T06:42:08;101860.81;;;-4.08;91.05
32109;BME280;18624;50.042;8.436;2024-01-11T06:44:34;101875.13;;;-3.98;91.44
32109;BME280;18624;50.042;8.436;2024-01-11T06:47:01;101891.22;;;-3.85;91.41
32109;BME280;18624;50.042;8.436;2024-01-11T06:49:29;101888.84;;;-3.86;91.50
32109;BME280;18624;50.042;8.436;2024-01-11T06:51:57;101887.56;;;-3.89;92.03
32109;BME280;18624;50.042;8.436;2024-01-11T06:54:24;101867.09;;;-3.98;92.52
32109;BME280;18624;50.042;8.436;2024-01-11T06:56:50;101879.13;;;-3.96;91.90
32109;BME280;18624;50.042;8.436;2024-01-11T06:59:17;101898.25;;;-3.89;92.44
32109;BME280;18624;50.042;8.436;2024-01-11T07:01:45;101773.31;;;-4.77;92.20
32109;BME280;18624;50.042;8.436;2024-01-11T07:04:11;101906.59;;;-3.90;92.32
32109;BME280;18624;50.042;8.436;2024-01-11T07:06:38;101910.88;;;-3.89;92.00
32109;BME280;18624;50.042;8.436;2024-01-11T07:09:05;101861.88;;;-4.22;92.23
32109;BME280;18624;50.042;8.436;2024-01-11T07:11:32;101912.28;;;-3.92;92.38
32109;BME280;18624;50.042;8.436;2024-01-11T07:13:59;101910.75;;;-3.98;91.50
32109;BME280;18624;50.042;8.436;2024-01-11T07:16:25;101920.44;;;-4.02;91.22
32109;BME280;18624;50.042;8.436;2024-01-11T07:18:52;101900.06;;;-4.17;91.32
32109;BME280;18624;50.042;8.436;2024-01-11T07:21:22;101867.34;;;-4.33;92.10
32109;BME280;18624;50.042;8.436;2024-01-11T07:23:55;101900.69;;;-4.06;91.88
32109;BME280;18624;50.042;8.436;2024-01-11T07:26:25;101882.84;;;-4.29;92.36
32109;BME280;18624;50.042;8.436;2024-01-11T07:28:53;101871.84;;;-4.28;92.56
32109;BME280;18624;50.042;8.436;2024-01-11T07:31:21;101822.25;;;-4.58;92.82
32109;BME280;18624;50.042;8.436;2024-01-11T07:33:48;101874.16;;;-4.21;92.45
32109;BME280;18624;50.042;8.436;2024-01-11T07:36:15;101904.47;;;-4.07;92.23
32109;BME280;18624;50.042;8.436;2024-01-11T07:38:41;101908.06;;;-3.98;92.75
32109;BME280;18624;50.042;8.436;2024-01-11T07:41:08;101914.22;;;-3.97;92.38
32109;BME280;18624;50.042;8.436;2024-01-11T07:43:35;101881.81;;;-4.15;92.39
32109;BME280;18624;50.042;8.436;2024-01-11T07:46:18;101882.97;;;-4.21;92.11
32109;BME280;18624;50.042;8.436;2024-01-11T07:48:45;101912.13;;;-4.00;92.72
32109;BME280;18624;50.042;8.436;2024-01-11T07:51:12;101916.03;;;-4.12;92.24
32109;BME280;18624;50.042;8.436;2024-01-11T07:53:39;101909.91;;;-4.12;92.49
32109;BME280;18624;50.042;8.436;2024-01-11T07:56:08;101766.47;;;-5.02;91.83
32109;BME280;18624;50.042;8.436;2024-01-11T07:58:34;101788.63;;;-4.64;92.18
32109;BME280;18624;50.042;8.436;2024-01-11T08:01:04;101846.94;;;-4.28;92.76
32109;BME280;18624;50.042;8.436;2024-01-11T08:03:30;101923.28;;;-3.79;92.21
32109;BME280;18624;50.042;8.436;2024-01-11T08:05:57;101905.28;;;-3.93;92.11
32109;BME280;18624;50.042;8.436;2024-01-11T08:08:24;101897.69;;;-3.86;92.24
32109;BME280;18624;50.042;8.436;2024-01-11T08:10:50;101878.56;;;-4.12;92.19
32109;BME280;18624;50.042;8.436;2024-01-11T08:13:17;101921.94;;;-3.77;91.89
32109;BME280;18624;50.042;8.436;2024-01-11T08:15:44;101922.63;;;-3.71;92.05
32109;BME280;18624;50.042;8.436;2024-01-11T08:18:11;101922.53;;;-3.66;91.92
32109;BME280;18624;50.042;8.436;2024-01-11T08:20:38;101920.88;;;-3.62;92.34
32109;BME280;18624;50.042;8.436;2024-01-11T08:23:05;101923.75;;;-3.59;92.08
32109;BME280;18624;50.042;8.436;2024-01-11T08:25:33;101813.16;;;-4.24;91.90
32109;BME280;18624;50.042;8.436;2024-01-11T08:27:59;101915.03;;;-3.50;92.45
32109;BME280;18624;50.042;8.436;2024-01-11T08:30:26;101920.59;;;-3.47;92.21
32109;BME280;18624;50.042;8.436;2024-01-11T08:32:52;101917.00;;;-3.42;92.08
32109;BME280;18624;50.042;8.436;2024-01-11T08:35:19;101876.97;;;-3.66;91.33
32109;BME280;18624;50.042;8.436;2024-01-11T08:37:46;101899.25;;;-3.52;90.09
32109;BME280;18624;50.042;8.436;2024-01-11T08:40:13;101878.69;;;-3.57;90.62
32109;BME280;18624;50.042;8.436;2024-01-11T08:42:40;101869.56;;;-3.55;90.33
32109;BME280;18624;50.042;8.436;2024-01-11T08:45:07;101914.75;;;-3.21;90.71
32109;BME280;18624;50.042;8.436;2024-01-11T08:47:34;101913.28;;;-3.27;90.59
32109;BME280;18624;50.042;8.436;2024-01-11T08:50:01;101914.38;;;-3.28;90.54
32109;BME280;18624;50.042;8.436;2024-01-11T08:52:32;101913.28;;;-3.27;90.41
32109;BME280;18624;50.042;8.436;2024-01-11T08:55:00;101925.19;;;-3.20;90.38
32109;BME280;18624;50.042;8.436;2024-01-11T08:57:26;101933.63;;;-3.13;90.69
32109;BME280;18624;50.042;8.436;2024-01-11T08:59:53;101943.16;;;-3.07;89.08
32109;BME280;18624;50.042;8.436;2024-01-11T09:02:20;101957.09;;;-3.04;88.55
32109;BME280;18624;50.042;8.436;2024-01-11T09:04:52;101902.44;;;-3.50;88.73
32109;BME280;18624;50.042;8.436;2024-01-11T09:07:19;101966.41;;;-3.16;89.81
32109;BME280;18624;50.042;8.436;2024-01-11T09:09:46;101963.16;;;-3.13;90.69
32109;BME280;18624;50.042;8.436;2024-01-11T09:12:22;101952.00;;;-3.20;90.71
32109;BME280;18624;50.042;8.436;2024-01-11T09:14:48;101958.97;;;-3.19;90.53
32109;BME280;18624;50.042;8.436;2024-01-11T09:17:15;101955.31;;;-3.09;91.40
32109;BME280;18624;50.042;8.436;2024-01-11T09:19:42;101944.78;;;-3.19;90.81
32109;BME280;18624;50.042;8.436;2024-01-11T09:22:08;101959.88;;;-3.10;90.76
32109;BME280;18624;50.042;8.436;2024-01-11T09:24:37;101951.03;;;-3.10;90.00
32109;BME280;18624;50.042;8.436;2024-01-11T09:27:06;101958.69;;;-3.03;88.47
32109;BME280;18624;50.042;8.436;2024-01-11T09:29:32;101953.63;;;-3.05;88.70
32109;BME280;18624;50.042;8.436;2024-01-11T09:31:59;101912.28;;;-3.32;89.27
32109;BME280;18624;50.042;8.436;2024-01-11T09:34:26;101899.25;;;-3.38;89.91
32109;BME280;18624;50.042;8.436;2024-01-11T09:36:53;101947.16;;;-3.04;90.05
32109;BME280;18624;50.042;8.436;2024-01-11T09:39:20;101939.53;;;-3.11;90.05
32109;BME280;18624;50.042;8.436;2024-01-11T09:41:52;101862.59;;;-3.57;90.53
32109;BME280;18624;50.042;8.436;2024-01-11T09:44:25;101885.22;;;-3.63;90.10
32109;BME280;18624;50.042;8.436;2024-01-11T09:46:52;101974.66;;;-3.26;91.39
32109;BME280;18624;50.042;8.436;2024-01-11T09:49:22;101959.34;;;-3.25;91.95
32109;BME280;18624;50.042;8.436;2024-01-11T09:51:49;101965.13;;;-3.18;91.78
32109;BME280;18624;50.042;8.436;2024-01-11T09:54:18;101969.50;;;-3.09;91.97
32109;BME280;18624;50.042;8.436;2024-01-11T09:56:49;101974.19;;;-3.00;91.40
32109;BME280;18624;50.042;8.436;2024-01-11T09:59:20;101970.31;;;-2.94;91.02
32109;BME280;18624;50.042;8.436;2024-01-11T10:01:49;101937.53;;;-3.19;91.20
32109;BME280;18624;50.042;8.436;2024-01-11T10:04:16;101974.28;;;-3.06;91.48
32109;BME280;18624;50.042;8.436;2024-01-11T10:06:43;101979.94;;;-2.93;91.74
32109;BME280;18624;50.042;8.436;2024-01-11T10:09:10;101935.91;;;-3.20;92.05
32109;BME280;18624;50.042;8.436;2024-01-11T10:11:37;101980.56;;;-2.83;91.83
32109;BME280;18624;50.042;8.436;2024-01-11T10:14:04;101984.72;;;-2.76;91.02
32109;BME280;18624;50.042;8.436;2024-01-11T10:16:31;101975.28;;;-2.74;91.03
32109;BME280;18624;50.042;8.436;2024-01-11T10:18:58;101969.31;;;-2.71;91.07
32109;BME280;18624;50.042;8.436;2024-01-11T10:21:26;101958.41;;;-2.74;90.92
32109;BME280;18624;50.042;8.436;2024-01-11T10:23:53;101962.44;;;-2.63;90.21
32109;BME280;18624;50.042;8.436;2024-01-11T10:26:20;101792.31;;;-3.67;90.21
32109;BME280;18624;50.042;8.436;2024-01-11T10:28:48;101933.63;;;-2.71;90.75
32109;BME280;18624;50.042;8.436;2024-01-11T10:31:15;101943.53;;;-2.58;90.36
32109;BME280;18624;50.042;8.436;2024-01-11T10:33:41;101936.47;;;-2.54;90.93
32109;BME280;18624;50.042;8.436;2024-01-11T10:36:11;101928.44;;;-2.54;90.02
32109;BME280;18624;50.042;8.436;2024-01-11T10:38:39;101940.34;;;-2.46;89.38
32109;BME280;18624;50.042;8.436;2024-01-11T10:41:06;101808.38;;;-3.26;89.46
32109;BME280;18624;50.042;8.436;2024-01-11T10:43:37;101921.66;;;-2.51;89.99
32109;BME280;18624;50.042;8.436;2024-01-11T10:46:05;101927.41;;;-2.44;89.50
32109;BME280;18624;50.042;8.436;2024-01-11T10:48:37;101929.81;;;-2.43;89.36
32109;BME280;18624;50.042;8.436;2024-01-11T10:51:08;101932.56;;;-2.34;89.55
32109;BME280;18624;50.042;8.436;2024-01-11T10:53:45;101935.31;;;-2.25;89.89
32109;BME280;18624;50.042;8.436;2024-01-11T10:56:14;101929.88;;;-2.12;88.77
32109;BME280;18624;50.042;8.436;2024-01-11T10:58:44;101905.66;;;-2.20;88.53
32109;BME280;18624;50.042;8.436;2024-01-11T11:01:12;101848.88;;;-2.50;88.51
32109;BME280;18624;50.042;8.436;2024-01-11T11:03:40;101918.84;;;-2.10;87.86
32109;BME280;18624;50.042;8.436;2024-01-11T11:06:10;101917.94;;;-2.06;87.78
32109;BME280;18624;50.042;8.436;2024-01-11T11:08:37;101918.25;;;-2.07;87.72
32109;BME280;18624;50.042;8.436;2024-01-11T11:11:06;101900.59;;;-2.22;87.47
32109;BME280;18624;50.042;8.436;2024-01-11T11:13:34;101902.34;;;-2.17;87.05
32109;BME280;18624;50.042;8.436;2024-01-11T11:16:01;101899.84;;;-2.14;86.86
32109;BME280;18624;50.042;8.436;2024-01-11T11:18:31;101922.22;;;-2.05;86.22
32109;BME280;18624;50.042;8.436;2024-01-11T11:20:58;101911.53;;;-1.96;85.68
32109;BME280;18624;50.042;8.436;2024-01-11T11:23:25;101842.47;;;-2.40;85.47
32109;BME280;18624;50.042;8.436;2024-01-11T11:25:54;101912.81;;;-1.93;85.79
32109;BME280;18624;50.042;8.436;2024-01-11T11:28:22;101911.91;;;-1.89;84.98
32109;BME280;18624;50.042;8.436;2024-01-11T11:30:49;101903.91;;;-1.80;85.43
32109;BME280;18624;50.042;8.436;2024-01-11T11:33:20;101905.53;;;-1.70;85.34
32109;BME280;18624;50.042;8.436;2024-01-11T11:35:51;101905.81;;;-1.72;85.20
32109;BME280;18624;50.042;8.436;2024-01-11T11:38:20;101907.44;;;-1.71;85.62
32109;BME280;18624;50.042;8.436;2024-01-11T11:40:48;101916.16;;;-1.65;86.14
32109;BME280;18624;50.042;8.436;2024-01-11T11:43:16;101907.56;;;-1.67;85.52
32109;BME280;18624;50.042;8.436;2024-01-11T11:45:46;101848.66;;;-1.86;84.89
32109;BME280;18624;50.042;8.436;2024-01-11T11:51:15;101889.03;;;-1.46;84.72
32109;BME280;18624;50.042;8.436;2024-01-11T11:53:47;101797.91;;;-1.88;84.00
32109;BME280;18624;50.042;8.436;2024-01-11T11:56:17;101881.47;;;-1.36;83.42
32109;BME280;18624;50.042;8.436;2024-01-11T11:58:45;101826.09;;;-1.76;83.63
32109;BME280;18624;50.042;8.436;2024-01-11T12:01:13;101880.69;;;-1.36;83.90
32109;BME280;18624;50.042;8.436;2024-01-11T12:03:41;101880.53;;;-1.31;83.23
32109;BME280;18624;50.042;8.436;2024-01-11T12:06:09;101880.53;;;-1.31;84.14
32109;BME280;18624;50.042;8.436;2024-01-11T12:08:37;101875.97;;;-1.31;83.71
32109;BME280;18624;50.042;8.436;2024-01-11T12:11:04;101811.25;;;-1.74;83.44
32109;BME280;18624;50.042;8.436;2024-01-11T12:13:32;101872.53;;;-1.14;82.77
32109;BME280;18624;50.042;8.436;2024-01-11T12:15:59;101870.81;;;-1.10;82.62
32109;BME280;18624;50.042;8.436;2024-01-11T12:18:26;101855.13;;;-1.16;81.95
32109;BME280;18624;50.042;8.436;2024-01-11T12:20:53;101867.66;;;-1.12;82.23
32109;BME280;18624;50.042;8.436;2024-01-11T12:23:20;101867.50;;;-1.07;82.39
32109;BME280;18624;50.042;8.436;2024-01-11T12:25:47;101810.31;;;-1.30;81.01
32109;BME280;18624;50.042;8.436;2024-01-11T12:28:14;101776.06;;;-1.46;80.21
32109;BME280;18624;50.042;8.436;2024-01-11T12:30:40;101806.03;;;-1.31;80.52
32109;BME280;18624;50.042;8.436;2024-01-11T12:33:09;101852.63;;;-0.95;80.80
32109;BME280;18624;50.042;8.436;2024-01-11T12:35:37;101874.81;;;-0.81;80.72
32109;BME280;18624;50.042;8.436;2024-01-11T12:38:05;101868.63;;;-0.82;80.32
32109;BME280;18624;50.042;8.436;2024-01-11T12:40:38;101875.16;;;-0.74;80.07
32109;BME280;18624;50.042;8.436;2024-01-11T12:43:05;101860.56;;;-0.73;80.70
32109;BME280;18624;50.042;8.436;2024-01-11T12:45:37;101812.72;;;-1.02;81.13
32109;BME280;18624;50.042;8.436;2024-01-11T12:48:07;101805.44;;;-1.10;80.89
32109;BME280;18624;50.042;8.436;2024-01-11T12:50:34;101842.97;;;-0.88;81.13
32109;BME280;18624;50.042;8.436;2024-01-11T12:53:08;101838.72;;;-0.80;80.44
32109;BME280;18624;50.042;8.436;2024-01-11T12:55:35;101812.25;;;-0.87;80.22